Dernières infos :  

21/06/2017  Mise à jour des tableaux d'analyses décadaires : rubrique climatologie
06/06/2017 Mise en ligne de la synthèse climatologique de Mai 2017 : 
CLIQUEZ ICI   

Si l'entête du tableau ne s'affiche pas correctement, => actualisez la page (F5 avec Internet Explorer, Chrome...).
Utilisez l'ascenseur sur la droite des lignes du tableau pour faire défiler verticalement les jours du mois.

TABLEAU DES DONNEES COMPLETES NOAA de JANVIER 2017

DATE TEMPERATURE
sous abri
TEMPARATURE 
au sol
VENT  et  Indice de Refroidissement Eolien  PRECIPITATIONS (en mm/m2)
et Intensité
PRESSION ATMOSPHERIQUE (en hPa) HUMIDITE de l'AIR RADIATIONS SOLAIRES (en W/m2)
Mini Moy. Maxi Mini Moy. Maxi Moyen Rafale I.R.E.
Minii
Précip. jour Cumul mois Intensité Maxi Mini Moy. Maxi Mini Moy. Maxi Pic maxi du jour Total jour
01/01/2017 -1.6° 0.1° -1.7° 0.3° 2.8° 2.9km/h dir SE 12.9km/h dir S -3.9° 0.2 0.2 1022 1025.1 1030.7 97% 97% 97% 127 5 871
02/01/2017 -0.2° 0.3° 0.5° 1.7° 4.7km/h dir NO 17.7km/h dir NO -3.2° 0.2 0.4 1022.5 1024.2 1026.3 97% 97% 97% 72 2 624
03/01/2017 -1.1° -0.1° 0.8° -1.1° -0.1° 1.1° 10km/h dir NO 27.4km/h dir ONO -5.6° 0.2 0.6 1026 1027.8 1029.7 88% 91.8% 97% 123 4 615
04/01/2017 -1.8° -0.2° 1.1° -1.7° -0.1° 7.8° 2.7km/h dir SE 12.9km/h dir S -3.5° 0 0.6 1024.1 1026.5 1029.5 87% 92% 96% 485 7 885
05/01/2017 -0.9° 1.3° 3.8° -2.2° 1.1° 8.9° 7.6km/h dir NO 25.7km/h dir NNE -5° 2.2 2.8 3mm/h 1025 1028.7 1032.9 84% 92.9% 97% 459 11 542
06/01/2017 -6° -2.7° 0.3° -8.9° -3.3° 10km/h dir NO 27.4km/h dir NO -9.7° 0 2.8 1032.9 1034.7 1036.1 67% 82.1% 89% 352 19 765
07/01/2017 -9.4° -4.8° -1.2° -11.1° -5° 3.9° 2.3km/h dir NNE 12.9km/h dir ONO -10.2° 0 2.8 1034.2 1035.4 1036.9 74% 84.7% 93% 410 16 904
08/01/2017 -1.6° -0.3° 0.9° -1.7° -0.5° 2.2° 8km/h dir NNE 27.4km/h dir NO -4.4° 0.4 3.2 1030.4 1031.9 1034.2 81% 91.5% 95% 248 6 826
09/01/2017 -1.6° -0.2° -1.7° -0.1° 2.2° 4.8km/h dir NNE 22.5km/h dir NNE -5.1° 0 3.2 1021 1028.1 1031.8 88% 91.8% 95% 186 7 558
10/01/2017 0.2° 1.3° 2.7° 1.2° 3.9° 3.2km/h dir SSE 12.9km/h dir SSE -1.8° 11.4 14.6 3.2mm/h 1011 1014.1 1021 87% 94.6% 97% 144 4 683
11/01/2017 0.2° 2.7° 5.3° 2.7° 5.6° 6km/h dir SSE 24.1km/h dir S -1.5° 1 15.6 1016.7 1019.1 1021.1 78% 92.8% 97% 167 7 618
12/01/2017 4.2° 6.2° 9.2° 3.3° 5.9° 8.9° 7.1km/h dir SSE 49.9km/h dir S 2.9° 4 19.6 83.4mm/h 1003.7 1015.2 1021.6 78% 91.6% 96% 146 5 577
13/01/2017 0.5° 7.7° -1.1° 2.4° 6.7° 6km/h dir SO 35.4km/h dir SO -1.6° 2.4 22 1mm/h 1007.3 1011.5 1014.9 70% 87.4% 95% 325 5 647
14/01/2017 -0.3° 1.7° 3.4° -3.3° 1.1° 6.7° 5.8km/h dir O 30.6km/h dir NO -1.9° 4 26 1mm/h 1014.9 1019.2 1021.5 68% 87.3% 96% 497 11 572
15/01/2017 -1.2° 0.5° 1.9° -4.4° 0.2° 3.9° 2.4km/h dir NO 16.1km/h dir NO -2.9° 2.6 28.6 1.6mm/h 1020.2 1023.1 1024.9 90% 93.6% 96% 260 7 874
16/01/2017 -2.2° 0.1° 2.5° -3.3° -0.2° 6.7° 10.8km/h dir NNE 41.8km/h dir N -7.9° 0.6 29.2 1020.2 1021.8 1023.7 73% 87.9% 96% 394 20 209
17/01/2017 -4° -2.3° 0.1° -5° -2.8° 3.3° 21.1km/h dir NNE 56.3km/h dir NNE -11° 0 29.2 1022.9 1023.9 1025.6 70% 79% 86% 387 22 994
18/01/2017 -8.3° -3.3° 1.3° -10° -4.1° 7.2° 5.1km/h dir NNE 25.7km/h dir NE -8.5° 0 29.2 1025.4 1026.9 1028 62% 78.6% 92% 388 22 920
19/01/2017 -9.7° -5.3° 0.3° -11.1° -6.2° 2.1km/h dir ESE 11.3km/h dir ONO -11.1° 0 29.2 1027.9 1029.9 1031.3 73% 86.9% 93% 383 21 664
20/01/2017 -9.7° -4.5° 2.5° -11.1° -5.4° 6.7° 1.8km/h dir SE 9.7km/h dir ONO -11.2° 0.2 29.4 1028.9 1030 1031.2 70% 87.2% 93% 373 21 566
21/01/2017 -8.4° -4.3° 1.8° -10° -5.2° 6.7° 1.9km/h dir NE 12.9km/h dir O -9° 0 29.4 1025.6 1027.6 1029.3 79% 90.1% 95% 383 20 789
22/01/2017 -8.7° -4.7° -1.8° -10° -5.3° -1.1° 1.3km/h dir ESE 9.7km/h dir SSE -10.1° 0 29.4 1023.5 1024.6 1026 92% 93.6% 95% 165 8 779
23/01/2017 -7.7° -5.1° -3.4° -10° -5.5° -2.2° 2.3km/h dir NE 17.7km/h dir ENE -8.9° 0 29.4 1023.9 1024.6 1025.6 92% 94% 95% 132 7 110
24/01/2017 -6.7° -5.1° -3.2° -6.7° -5° -3.3° 5.6km/h dir NNE 22.5km/h dir N -10.5° 0 29.4 1025.4 1026.8 1028.2 88% 92.9% 94% 74 4 196
25/01/2017 -7.8° -4° -1.2° -10° -4.7° 2.2° 2.4km/h dir ENE 17.7km/h dir NNE -8.9° 0 29.4 1025.3 1026 1027.2 74% 85% 92% 427 13 415
26/01/2017 -9.9° -4.8° 1.8° -11.1° -5° 6.7° 2.1km/h dir ESE 12.9km/h dir SSE -11.4° 0 29.4 1019.3 1022.8 1026.2 72% 86.9% 92% 490 20 778
27/01/2017 -3.3° 0.7° 4.8° -5° -0.2° 4.4° 2.6km/h dir ESE 16.1km/h dir O -5.3° 0 29.4 1016.5 1017.9 1019.6 77% 86.3% 92% 120 6 097
28/01/2017 0.4° 4.1° 10.1° -0.6° 3.3° 13.3° 1.8km/h dir SO 14.5km/h dir ESE 0.4 29.8 1016.7 1018.9 1022.6 59% 82.2% 92% 464 16 608
29/01/2017 3.1° 5.8° 10.6° -0.6° 4.4° 12.8° 3.2km/h dir ESE 20.9km/h dir SSE 1.6° 0.6 30.4 1020.7 1022.2 1024 76% 89.8% 95% 362 12 631
30/01/2017 6.8° 7.5° 8.4° 6.8° 8.3° 10.1km/h dir SSE 33.8km/h dir SSE 4.4° 6.8 37.2 2.4mm/h 1017.2 1018.7 1021 77% 88.3% 96% 116 6 217
31/01/2017 7.4° 9.5° 11.8° 7.2° 9.2° 12.2° 8.2km/h dir SSE 32.2km/h dir SSE 5.6° 3.4 40.6 1.6mm/h 1016 1016.8 1017.8 83% 90.2% 96% 234 9 568

RETOUR ACCUEIL


Date de création : 01/02/2017 : 19:27
Catégorie : ANNEE 2017 - MOIS PASSES - JANVIER 2017
Page lue 332 fois


Réactions à cet article

Personne n'a encore laissé de commentaire.
Soyez donc le premier !